Time;durP1;ratioP1;P1;durP2;ratioP2;P2;SDS_P1;SDS_P2;PMS_P1;PMS_P2;Temp;Humidity;BMP_temperature;BMP_pressure;BME280_temperature;BME280_humidity;BME280_pressure;Samples;Min_cycle;Max_cycle;Signal;HPM_P1;HPM_P2
2022/05/10 00:00:38;;;;;;;14.83;13.63;;;13.90;96.50;;;;;;5099645;28;20170;-44
2022/05/10 00:03:06;;;;;;;14.10;12.90;;;13.80;96.40;;;;;;5098749;28;20439;-44
2022/05/10 00:05:39;;;;;;;14.53;13.40;;;13.80;96.90;;;;;;5081288;28;20748;-44
2022/05/10 00:08:09;;;;;;;15.10;13.93;;;13.80;96.70;;;;;;5080890;28;20458;-44
2022/05/10 00:10:36;;;;;;;14.93;13.63;;;13.80;96.70;;;;;;5081185;28;20399;-44
2022/05/10 00:13:02;;;;;;;14.33;13.13;;;13.70;96.70;;;;;;5098781;28;20491;-44
2022/05/10 00:15:28;;;;;;;13.93;12.63;;;13.70;96.80;;;;;;5099333;28;20686;-44
2022/05/10 00:17:54;;;;;;;15.13;13.80;;;13.60;96.90;;;;;;5099282;28;20427;-44
2022/05/10 00:20:23;;;;;;;14.33;13.17;;;13.60;97.00;;;;;;5100165;28;20421;-44
2022/05/10 00:22:48;;;;;;;14.57;13.37;;;13.50;97.10;;;;;;5099728;28;20449;-44
2022/05/10 00:25:17;;;;;;;13.70;12.63;;;13.50;97.30;;;;;;5081614;28;20422;-44
2022/05/10 00:27:44;;;;;;;15.57;14.27;;;13.40;97.30;;;;;;5098436;28;20466;-44
2022/05/10 00:30:10;;;;;;;15.53;14.23;;;13.40;97.50;;;;;;5080620;28;20475;-44
2022/05/10 00:32:37;;;;;;;15.60;14.20;;;13.40;97.60;;;;;;5099449;28;20432;-44
2022/05/10 00:35:05;;;;;;;14.93;13.63;;;13.40;97.60;;;;;;5099063;28;20466;-45
2022/05/10 00:37:31;;;;;;;14.90;13.80;;;13.30;97.70;;;;;;5081401;28;20567;-44
2022/05/10 00:39:57;;;;;;;13.97;12.87;;;13.30;97.60;;;;;;5065197;28;20419;-44
2022/05/10 00:42:33;;;;;;;15.50;14.20;;;13.30;97.60;;;;;;5098825;28;20451;-45
2022/05/10 00:45:07;;;;;;;16.10;14.80;;;13.20;97.60;;;;;;5081375;28;20472;-44
2022/05/10 00:47:45;;;;;;;15.30;14.10;;;13.20;97.70;;;;;;5080834;28;20500;-45
2022/05/10 00:50:22;;;;;;;14.90;13.50;;;13.20;97.90;;;;;;5098243;28;20765;-44
2022/05/10 00:52:52;;;;;;;14.70;13.60;;;13.10;97.90;;;;;;5098178;28;20424;-44
2022/05/10 00:55:40;;;;;;;15.40;14.00;;;13.10;97.90;;;;;;5080445;28;20420;-44
2022/05/10 00:58:35;;;;;;;14.30;13.20;;;13.10;97.90;;;;;;5083867;28;20443;-44
2022/05/10 01:01:02;;;;;;;14.97;13.77;;;13.10;97.90;;;;;;5097159;28;20467;-45
2022/05/10 01:03:39;;;;;;;14.97;13.63;;;13.00;97.80;;;;;;5096972;28;20527;-44
2022/05/10 01:06:09;;;;;;;15.07;13.97;;;13.00;98.00;;;;;;5079471;28;20418;-44
2022/05/10 01:09:04;;;;;;;15.83;14.50;;;13.00;98.10;;;;;;5079867;28;20513;-42
2022/05/10 01:11:39;;;;;;;15.40;13.80;;;12.90;98.10;;;;;;5098279;28;20431;-44
2022/05/10 01:14:19;;;;;;;13.80;12.70;;;13.00;98.30;;;;;;5080153;28;20523;-44
2022/05/10 01:16:45;;;;;;;16.10;14.70;;;12.90;98.30;;;;;;5080969;28;20422;-44
2022/05/10 01:19:13;;;;;;;14.73;13.57;;;12.90;98.30;;;;;;5081119;28;20472;-44
2022/05/10 01:22:04;;;;;;;16.20;14.80;;;13.00;98.40;;;;;;5098856;28;20182;-44
2022/05/10 01:24:52;;;;;;;15.87;14.50;;;12.90;98.20;;;;;;5080228;28;20523;-44
2022/05/10 01:27:39;;;;;;;16.00;14.50;;;12.90;98.20;;;;;;5098578;28;20485;-44
2022/05/10 01:30:18;;;;;;;16.27;14.77;;;12.80;98.10;;;;;;5098526;28;20611;-44
2022/05/10 01:35:45;;;;;;;15.57;14.17;;;12.70;98.20;;;;;;5098129;28;20407;-44
2022/05/10 01:38:47;;;;;;;15.03;13.77;;;12.60;98.30;;;;;;5098364;28;20438;-44
2022/05/10 01:41:22;;;;;;;15.67;14.27;;;12.60;98.50;;;;;;5063299;28;20420;-44
2022/05/10 01:44:03;;;;;;;15.80;14.40;;;12.50;98.60;;;;;;5097897;28;20407;-44
2022/05/10 01:46:31;;;;;;;16.67;15.27;;;12.50;98.70;;;;;;5079948;28;20457;-44
2022/05/10 01:49:11;;;;;;;15.23;14.03;;;12.50;98.80;;;;;;5080284;28;20414;-45
2022/05/10 01:51:46;;;;;;;15.67;14.37;;;12.50;98.90;;;;;;5098372;28;20418;-44
2022/05/10 01:54:38;;;;;;;16.50;15.20;;;12.50;98.90;;;;;;5080410;28;20458;-45
2022/05/10 01:57:04;;;;;;;15.70;14.50;;;12.50;98.90;;;;;;5080307;28;20449;-44
2022/05/10 01:59:29;;;;;;;15.53;14.23;;;12.50;98.90;;;;;;5098414;28;20408;-44
2022/05/10 02:01:57;;;;;;;16.77;15.37;;;12.50;98.90;;;;;;5097761;28;20424;-44
2022/05/10 02:04:27;;;;;;;16.37;15.07;;;12.40;98.70;;;;;;5080505;28;20179;-44
2022/05/10 02:07:14;;;;;;;15.73;14.37;;;12.40;98.70;;;;;;5098060;28;20420;-45
2022/05/10 02:09:48;;;;;;;16.00;14.60;;;12.40;98.70;;;;;;5098075;28;20439;-44
2022/05/10 02:12:21;;;;;;;17.57;16.03;;;12.40;98.70;;;;;;5080285;28;20486;-44
2022/05/10 02:14:56;;;;;;;17.47;15.87;;;12.40;98.80;;;;;;5097691;28;20585;-44
2022/05/10 02:17:23;;;;;;;16.80;15.30;;;12.40;98.90;;;;;;5097915;28;20650;-44
2022/05/10 02:19:55;;;;;;;15.50;14.20;;;12.40;99.00;;;;;;5097867;28;20529;-44
2022/05/10 02:22:30;;;;;;;16.27;14.97;;;12.30;98.90;;;;;;5097989;28;20403;-44
2022/05/10 02:25:03;;;;;;;16.50;15.20;;;12.30;98.70;;;;;;5079628;28;20488;-44
2022/05/10 02:27:38;;;;;;;16.63;15.13;;;12.30;98.70;;;;;;5079608;28;20411;-44
2022/05/10 02:30:09;;;;;;;15.93;14.53;;;12.30;98.70;;;;;;5096673;28;20853;-45
2022/05/10 02:35:26;;;;;;;17.00;15.50;;;12.30;98.80;;;;;;5097507;28;20448;-44
2022/05/10 02:37:51;;;;;;;16.20;14.77;;;12.20;98.60;;;;;;5084602;28;20456;-44
2022/05/10 02:40:17;;;;;;;16.77;15.17;;;12.20;98.70;;;;;;5077403;28;20465;-44
2022/05/10 02:42:48;;;;;;;15.47;14.27;;;12.20;98.70;;;;;;5059677;28;20227;-44
2022/05/10 02:45:18;;;;;;;16.70;15.40;;;12.10;98.80;;;;;;5077480;28;20443;-44
2022/05/10 02:47:45;;;;;;;18.20;16.63;;;12.10;98.80;;;;;;5077503;28;20407;-44
2022/05/10 02:50:32;;;;;;;15.93;14.63;;;12.00;98.80;;;;;;5077234;28;20438;-44
2022/05/10 02:52:58;;;;;;;16.60;15.20;;;12.00;98.90;;;;;;5077258;28;20404;-45
2022/05/10 02:55:56;;;;;;;17.17;15.77;;;12.00;99.00;;;;;;5080851;28;20442;-44
2022/05/10 02:58:28;;;;;;;16.20;14.80;;;11.90;99.00;;;;;;5080574;28;20502;-44
2022/05/10 03:01:04;;;;;;;17.27;15.77;;;11.90;99.10;;;;;;5070611;28;20887;-44
2022/05/10 03:03:30;;;;;;;17.70;16.20;;;11.90;99.10;;;;;;5100745;28;20445;-44
2022/05/10 03:05:56;;;;;;;17.43;15.90;;;11.80;99.10;;;;;;5101081;28;20437;-44
2022/05/10 03:08:22;;;;;;;17.00;15.60;;;11.80;99.50;;;;;;5100516;28;20485;-44
2022/05/10 03:10:48;;;;;;;15.27;14.07;;;11.80;99.30;;;;;;5101348;28;20176;-44
2022/05/10 03:13:14;;;;;;;16.83;15.40;;;11.80;99.30;;;;;;5083259;28;20437;-44
2022/05/10 03:15:40;;;;;;;17.40;15.90;;;11.80;99.30;;;;;;5101108;28;20422;-44
2022/05/10 03:18:06;;;;;;;17.73;16.13;;;11.80;99.30;;;;;;5100634;28;20196;-45
2022/05/10 03:20:31;;;;;;;16.33;14.90;;;11.80;99.40;;;;;;5100898;28;20427;-45
2022/05/10 03:22:57;;;;;;;17.60;16.10;;;11.80;99.40;;;;;;5100287;28;20269;-44
2022/05/10 03:25:23;;;;;;;16.43;15.13;;;11.80;99.40;;;;;;5100668;28;20444;-45
2022/05/10 03:27:49;;;;;;;16.37;14.87;;;11.70;99.40;;;;;;5099644;28;20469;-44
2022/05/10 03:30:15;;;;;;;18.30;16.67;;;11.70;99.30;;;;;;5100396;28;20480;-44
2022/05/10 03:32:41;;;;;;;17.53;16.13;;;11.70;99.20;;;;;;5100418;28;20223;-44
2022/05/10 03:35:07;;;;;;;17.30;15.90;;;11.70;99.20;;;;;;5099704;28;20538;-44
2022/05/10 03:37:33;;;;;;;17.70;16.20;;;11.70;99.20;;;;;;5100021;28;20170;-44
2022/05/10 03:39:59;;;;;;;17.47;15.90;;;11.70;99.30;;;;;;5100415;28;20976;-45
2022/05/10 03:42:25;;;;;;;16.57;15.17;;;11.60;99.30;;;;;;5099966;28;20179;-44
2022/05/10 03:44:54;;;;;;;18.87;17.17;;;11.60;99.40;;;;;;5081780;28;20945;-44
2022/05/10 03:47:21;;;;;;;17.30;15.80;;;11.60;99.60;;;;;;5100280;28;20476;-44
2022/05/10 03:49:47;;;;;;;18.93;17.30;;;11.50;99.40;;;;;;5100034;28;20428;-44
2022/05/10 03:52:14;;;;;;;18.63;16.90;;;11.60;99.50;;;;;;5099279;28;20426;-44
2022/05/10 03:54:40;;;;;;;19.60;18.00;;;11.50;99.40;;;;;;5099614;28;20586;-44
2022/05/10 03:57:06;;;;;;;17.17;15.60;;;11.50;99.30;;;;;;5099314;28;20414;-44
2022/05/10 03:59:32;;;;;;;18.10;16.50;;;11.50;99.30;;;;;;5099740;28;20419;-44
2022/05/10 04:01:58;;;;;;;18.17;16.67;;;11.50;99.30;;;;;;5099978;28;20473;-44
2022/05/10 04:04:24;;;;;;;17.30;15.70;;;11.50;99.40;;;;;;5099360;28;20519;-44
2022/05/10 04:06:49;;;;;;;18.40;16.90;;;11.50;99.40;;;;;;5097900;28;20495;-44
2022/05/10 04:09:16;;;;;;;18.13;16.60;;;11.50;99.40;;;;;;5098450;28;20242;-44
2022/05/10 04:11:42;;;;;;;17.40;15.90;;;11.50;99.50;;;;;;5098676;28;20177;-44
2022/05/10 04:14:08;;;;;;;17.73;16.30;;;11.50;99.50;;;;;;5080549;28;20470;-44
2022/05/10 04:16:34;;;;;;;17.87;16.33;;;11.50;99.50;;;;;;5098980;28;20429;-44
2022/05/10 04:19:00;;;;;;;18.10;16.50;;;11.50;99.60;;;;;;5098871;28;20244;-45
2022/05/10 04:21:26;;;;;;;18.10;16.60;;;11.50;99.60;;;;;;5098128;28;20161;-44
2022/05/10 04:23:51;;;;;;;18.60;16.80;;;11.50;99.60;;;;;;5097740;28;20437;-44
2022/05/10 04:26:19;;;;;;;18.60;17.00;;;11.60;99.60;;;;;;5098938;28;20212;-44
2022/05/10 04:28:45;;;;;;;19.63;17.93;;;11.60;99.60;;;;;;5080746;28;20207;-44
2022/05/10 04:31:11;;;;;;;18.97;17.30;;;11.60;99.60;;;;;;5098700;28;20477;-43
2022/05/10 04:33:37;;;;;;;21.03;19.13;;;11.70;99.70;;;;;;5097845;28;20577;-44
2022/05/10 04:36:03;;;;;;;18.90;17.23;;;11.70;99.70;;;;;;5098593;28;20407;-45
2022/05/10 04:38:29;;;;;;;20.13;18.07;;;11.70;99.70;;;;;;5098881;28;20828;-44
2022/05/10 04:43:39;;;;;;;19.20;17.60;;;11.90;99.80;;;;;;5098142;28;20564;-44
2022/05/10 04:46:06;;;;;;;19.00;17.40;;;11.90;99.80;;;;;;5079456;28;20424;-44
2022/05/10 04:48:33;;;;;;;17.80;16.20;;;12.00;99.80;;;;;;5098462;28;20772;-44
2022/05/10 04:50:59;;;;;;;18.83;17.23;;;12.10;99.70;;;;;;5098598;28;20490;-44
2022/05/10 04:53:25;;;;;;;17.93;16.43;;;12.20;99.60;;;;;;5096713;28;20513;-44
2022/05/10 04:55:51;;;;;;;18.37;16.73;;;12.20;99.50;;;;;;5096716;28;20417;-44
2022/05/10 04:58:17;;;;;;;19.67;17.90;;;12.30;99.50;;;;;;5078180;28;21009;-44
2022/05/10 05:00:43;;;;;;;17.47;16.07;;;12.40;99.40;;;;;;5096730;28;20577;-44
2022/05/10 05:03:09;;;;;;;17.30;15.70;;;12.50;99.30;;;;;;5096000;28;20180;-44
2022/05/10 05:05:34;;;;;;;19.30;17.50;;;12.60;99.20;;;;;;5096846;28;20522;-44
2022/05/10 05:08:00;;;;;;;18.73;17.13;;;12.70;99.10;;;;;;5097602;28;20169;-44
2022/05/10 05:10:25;;;;;;;18.13;16.53;;;12.70;99.40;;;;;;5096701;28;20181;-45
2022/05/10 05:12:51;;;;;;;19.13;17.63;;;12.80;99.10;;;;;;5094542;28;20616;-44
2022/05/10 05:15:18;;;;;;;18.80;17.20;;;12.90;99.50;;;;;;5093284;28;20258;-45
2022/05/10 05:17:44;;;;;;;17.77;16.17;;;13.00;99.20;;;;;;5092399;28;20415;-44
2022/05/10 05:20:10;;;;;;;19.80;17.90;;;13.10;99.30;;;;;;5092993;28;20473;-46
2022/05/10 05:22:37;;;;;;;18.90;17.30;;;13.30;99.30;;;;;;5091515;28;20207;-45
2022/05/10 05:25:05;;;;;;;18.80;17.20;;;13.40;99.30;;;;;;5091792;28;20433;-45
2022/05/10 05:27:30;;;;;;;19.13;17.47;;;13.50;99.10;;;;;;5090594;28;20417;-44
2022/05/10 05:29:56;;;;;;;19.43;17.53;;;13.60;99.00;;;;;;5091621;28;20427;-44
2022/05/10 05:32:28;;;;;;;18.43;16.83;;;13.70;98.90;;;;;;5092820;28;20170;-45
2022/05/10 05:34:56;;;;;;;17.23;15.73;;;13.80;98.80;;;;;;5062404;28;20838;-45
2022/05/10 05:37:35;;;;;;;18.13;16.70;;;14.00;98.70;;;;;;5056444;28;20412;-45
2022/05/10 05:40:06;;;;;;;19.40;17.80;;;14.10;98.80;;;;;;5059369;28;20801;-45
2022/05/10 05:42:32;;;;;;;20.73;18.83;;;14.20;98.80;;;;;;5056454;28;20416;-44
2022/05/10 05:44:58;;;;;;;20.13;18.30;;;14.30;98.80;;;;;;5085868;28;20434;-45
2022/05/10 05:47:25;;;;;;;19.83;17.97;;;14.50;98.60;;;;;;5093815;28;20758;-45
2022/05/10 05:49:50;;;;;;;20.07;18.37;;;14.60;98.10;;;;;;5092956;28;20427;-45
2022/05/10 05:52:20;;;;;;;20.23;18.53;;;14.70;97.90;;;;;;5094387;28;20423;-45
2022/05/10 05:54:46;;;;;;;20.70;19.00;;;14.80;97.70;;;;;;5078382;28;20220;-45
2022/05/10 05:57:12;;;;;;;21.57;19.60;;;15.00;97.40;;;;;;5095363;28;20417;-45
2022/05/10 05:59:38;;;;;;;19.63;18.03;;;15.10;97.20;;;;;;5094713;28;20848;-45
2022/05/10 06:02:13;;;;;;;19.40;17.73;;;15.30;97.00;;;;;;5094543;28;20472;-45
2022/05/10 06:04:38;;;;;;;21.87;20.07;;;15.40;96.80;;;;;;5094340;28;20174;-44
2022/05/10 06:07:04;;;;;;;19.03;17.33;;;15.60;96.40;;;;;;5094064;28;20435;-45
2022/05/10 06:09:30;;;;;;;19.63;17.93;;;15.70;96.10;;;;;;5092783;28;20207;-45
2022/05/10 06:11:55;;;;;;;20.10;18.20;;;15.90;95.90;;;;;;5093743;28;20227;-45
2022/05/10 06:14:21;;;;;;;19.10;17.40;;;16.10;95.60;;;;;;5093646;28;20235;-45
2022/05/10 06:16:47;;;;;;;21.10;19.20;;;16.20;95.30;;;;;;5075280;28;20188;-45
2022/05/10 06:19:13;;;;;;;20.13;18.50;;;16.40;95.00;;;;;;5094590;28;20705;-45
2022/05/10 06:21:41;;;;;;;17.53;16.00;;;16.60;94.70;;;;;;5095036;28;20600;-45
2022/05/10 06:24:07;;;;;;;18.30;16.77;;;16.80;93.80;;;;;;5095115;28;20438;-45
2022/05/10 06:26:33;;;;;;;16.17;14.77;;;16.90;92.80;;;;;;5093632;28;20449;-45
2022/05/10 06:28:59;;;;;;;14.47;13.37;;;17.00;92.80;;;;;;5096222;28;20460;-45
2022/05/10 06:31:24;;;;;;;15.50;14.20;;;17.10;92.70;;;;;;5098242;28;20493;-45
2022/05/10 06:33:50;;;;;;;17.43;16.03;;;17.30;92.70;;;;;;5097832;28;20213;-45
2022/05/10 06:36:16;;;;;;;17.70;16.13;;;17.40;92.50;;;;;;5097425;28;20233;-45
2022/05/10 06:38:41;;;;;;;16.40;15.10;;;17.50;91.80;;;;;;5097626;28;20575;-45
2022/05/10 06:41:07;;;;;;;17.53;16.03;;;17.60;91.50;;;;;;5098355;28;20568;-45
2022/05/10 06:43:35;;;;;;;15.33;14.13;;;17.70;91.50;;;;;;5099054;28;20451;-45
2022/05/10 06:46:15;;;;;;;16.03;14.70;;;17.80;91.50;;;;;;5081352;28;20434;-45
2022/05/10 06:48:45;;;;;;;15.47;14.13;;;17.90;91.10;;;;;;5098784;28;20803;-45
2022/05/10 06:51:12;;;;;;;13.73;12.63;;;18.10;91.10;;;;;;5098239;28;20420;-45
2022/05/10 06:53:38;;;;;;;15.57;14.27;;;18.40;91.40;;;;;;5097838;28;20504;-44
2022/05/10 06:56:04;;;;;;;14.33;13.23;;;18.70;90.60;;;;;;5097906;28;20461;-45
2022/05/10 06:58:30;;;;;;;14.00;13.00;;;18.90;90.10;;;;;;5064365;28;20701;-45
2022/05/10 07:00:57;;;;;;;13.70;12.60;;;19.10;89.10;;;;;;5097726;28;20494;-45
2022/05/10 07:03:31;;;;;;;15.40;14.20;;;19.30;88.20;;;;;;5097900;28;20195;-48
2022/05/10 07:06:01;;;;;;;14.07;12.97;;;19.60;86.80;;;;;;5097062;28;20679;-46
2022/05/10 07:08:27;;;;;;;14.60;13.40;;;19.80;85.80;;;;;;5097319;28;20429;-46
2022/05/10 07:10:53;;;;;;;13.50;12.40;;;19.90;84.80;;;;;;5079942;28;20417;-47
2022/05/10 07:13:22;;;;;;;14.63;13.40;;;20.20;84.80;;;;;;5098666;28;20731;-46
2022/05/10 07:15:48;;;;;;;11.43;10.47;;;20.30;83.00;;;;;;5099307;28;20419;-47
2022/05/10 07:18:14;;;;;;;13.70;12.50;;;20.50;82.80;;;;;;5099116;28;20857;-46
2022/05/10 07:20:41;;;;;;;12.23;11.20;;;20.70;80.80;;;;;;5097884;28;20413;-47
2022/05/10 07:23:07;;;;;;;12.73;11.47;;;20.80;80.40;;;;;;5098017;28;20407;-39
2022/05/10 07:25:33;;;;;;;12.83;11.83;;;20.80;79.70;;;;;;5098690;28;20427;-42
2022/05/10 07:27:59;;;;;;;12.50;11.60;;;20.90;79.90;;;;;;5099690;28;20532;-41
2022/05/10 07:30:26;;;;;;;11.80;10.90;;;20.80;80.10;;;;;;5098100;28;20240;-41
2022/05/10 07:32:52;;;;;;;12.50;11.40;;;20.70;79.80;;;;;;5098468;28;20421;-40
2022/05/10 07:38:05;;;;;;;12.07;11.13;;;20.60;79.50;;;;;;5097953;28;20502;-42
2022/05/10 07:40:31;;;;;;;10.83;9.93;;;20.60;80.30;;;;;;5096297;28;20436;-38
2022/05/10 07:42:56;;;;;;;11.73;10.87;;;20.80;80.00;;;;;;5079455;28;20411;-40
2022/05/10 07:45:22;;;;;;;10.90;10.10;;;21.00;78.70;;;;;;5097708;28;20580;-41
2022/05/10 07:47:48;;;;;;;11.13;10.33;;;21.30;78.60;;;;;;5098862;28;20181;-39
2022/05/10 07:50:13;;;;;;;10.03;9.20;;;21.60;78.50;;;;;;5097892;28;20776;-38
2022/05/10 07:52:40;;;;;;;9.60;8.90;;;21.80;77.00;;;;;;5097771;28;20179;-39
2022/05/10 07:55:07;;;;;;;10.27;9.50;;;22.20;76.10;;;;;;5097193;28;20219;-39
2022/05/10 07:57:33;;;;;;;11.70;10.53;;;22.50;74.60;;;;;;5097629;28;20498;-39
2022/05/10 07:59:59;;;;;;;10.87;10.03;;;22.70;73.40;;;;;;5097984;28;20535;-40
2022/05/10 08:02:24;;;;;;;10.20;9.40;;;22.80;72.80;;;;;;5098020;28;20180;-40
2022/05/10 08:04:50;;;;;;;11.00;10.20;;;22.90;72.60;;;;;;5080245;28;20561;-39
2022/05/10 08:07:16;;;;;;;10.57;9.80;;;23.10;72.20;;;;;;5097398;28;20190;-39
2022/05/10 08:09:42;;;;;;;10.13;9.30;;;23.20;69.30;;;;;;5097243;28;20425;-37
2022/05/10 08:12:08;;;;;;;9.80;9.10;;;23.10;67.00;;;;;;5097920;28;20239;-39
2022/05/10 08:14:34;;;;;;;10.70;9.67;;;23.20;68.60;;;;;;5097921;28;20207;-39
2022/05/10 08:16:59;;;;;;;10.10;9.30;;;23.20;66.00;;;;;;5098124;28;20905;-43
2022/05/10 08:19:25;;;;;;;10.67;9.87;;;23.20;64.90;;;;;;5097886;28;20268;-39
2022/05/10 08:21:55;;;;;;;10.40;9.60;;;23.40;65.00;;;;;;5098128;28;20178;-44
2022/05/10 08:24:22;;;;;;;9.60;8.90;;;23.70;63.70;;;;;;5098890;28;20182;-39
2022/05/10 08:26:47;;;;;;;9.90;9.20;;;23.80;63.70;;;;;;5080419;28;20417;-40
2022/05/10 08:29:13;;;;;;;10.70;9.80;;;24.00;62.40;;;;;;5098246;28;20432;-40
2022/05/10 08:31:40;;;;;;;9.93;9.20;;;23.80;60.90;;;;;;5097760;28;20523;-40
2022/05/10 08:34:06;;;;;;;9.20;8.50;;;23.80;62.10;;;;;;5098826;28;20227;-39
2022/05/10 08:36:32;;;;;;;9.17;8.47;;;24.00;62.30;;;;;;5097936;28;20918;-40
2022/05/10 08:38:58;;;;;;;9.30;8.60;;;24.30;60.00;;;;;;5078287;28;20423;-43
2022/05/10 08:41:42;;;;;;;10.20;9.50;;;24.50;59.70;;;;;;5096051;28;20856;-39
2022/05/10 08:44:23;;;;;;;10.93;10.00;;;24.70;59.30;;;;;;5098222;28;20248;-40
2022/05/10 08:46:52;;;;;;;9.30;8.70;;;25.00;58.20;;;;;;5098261;28;20762;-41
2022/05/10 08:49:23;;;;;;;10.27;9.47;;;25.10;57.10;;;;;;5079424;28;20437;-39
2022/05/10 08:51:52;;;;;;;10.87;9.77;;;25.10;56.80;;;;;;5097364;28;20476;-42
2022/05/10 08:54:17;;;;;;;10.00;9.00;;;24.90;56.70;;;;;;5079505;28;20464;-37
2022/05/10 08:56:51;;;;;;;9.40;8.60;;;24.90;56.80;;;;;;5080402;28;20466;-42
2022/05/10 08:59:38;;;;;;;9.80;9.10;;;24.80;57.00;;;;;;5079547;28;20463;-39
2022/05/10 09:02:18;;;;;;;9.63;8.70;;;24.90;56.60;;;;;;5098293;28;20416;-39
2022/05/10 09:04:56;;;;;;;9.07;8.33;;;25.30;55.90;;;;;;5097430;28;20435;-41
2022/05/10 09:07:36;;;;;;;9.77;8.83;;;25.70;55.70;;;;;;5096191;28;20415;-39
2022/05/10 09:10:09;;;;;;;9.00;8.30;;;26.10;54.00;;;;;;5079273;28;20465;-41
2022/05/10 09:12:46;;;;;;;8.63;7.83;;;26.20;53.30;;;;;;5076900;28;20604;-42
2022/05/10 09:15:12;;;;;;;8.10;7.50;;;26.40;51.30;;;;;;5077603;28;20473;-41
2022/05/10 09:17:39;;;;;;;8.07;7.40;;;26.60;50.90;;;;;;5096592;28;20417;-39
2022/05/10 09:20:07;;;;;;;8.80;8.20;;;27.00;49.30;;;;;;5096231;28;20820;-39
2022/05/10 09:22:32;;;;;;;7.77;7.17;;;27.20;48.10;;;;;;5096347;28;20668;-39
2022/05/10 09:24:58;;;;;;;7.07;6.57;;;27.50;48.00;;;;;;5097365;28;20424;-42
2022/05/10 09:27:32;;;;;;;7.93;7.33;;;27.80;46.50;;;;;;5096622;28;20604;-39
2022/05/10 09:29:58;;;;;;;7.60;7.10;;;28.10;46.20;;;;;;5075769;28;20180;-42
2022/05/10 09:35:29;;;;;;;8.17;7.43;;;28.30;44.60;;;;;;5076147;28;20489;-41
2022/05/10 09:37:58;;;;;;;7.50;7.00;;;28.40;44.40;;;;;;5075896;28;20409;-39
2022/05/10 09:40:34;;;;;;;7.70;7.20;;;28.30;44.10;;;;;;5075964;28;20442;-41
2022/05/10 09:43:18;;;;;;;7.10;6.50;;;28.50;44.40;;;;;;5073645;28;20437;-43
2022/05/10 09:45:45;;;;;;;7.30;6.80;;;28.50;43.20;;;;;;5076368;28;20424;-41
2022/05/10 09:48:15;;;;;;;7.03;6.50;;;28.70;42.90;;;;;;5075735;28;20420;-42
2022/05/10 09:50:50;;;;;;;6.90;6.40;;;28.80;42.20;;;;;;5075698;28;20408;-43
2022/05/10 09:53:23;;;;;;;6.50;6.10;;;28.70;41.60;;;;;;5075488;28;21097;-40
2022/05/10 09:56:25;;;;;;;7.37;6.87;;;28.60;40.80;;;;;;5074888;28;20489;-39
2022/05/10 09:58:58;;;;;;;6.43;5.93;;;28.10;40.90;;;;;;5053586;28;20752;-39
2022/05/10 10:01:45;;;;;;;6.57;5.90;;;27.90;41.10;;;;;;5075685;28;20416;-41
2022/05/10 10:04:16;;;;;;;7.10;6.50;;;28.20;41.80;;;;;;5077720;28;20431;-43
2022/05/10 10:06:42;;;;;;;6.73;6.13;;;28.60;41.10;;;;;;5080299;28;20469;-50
2022/05/10 10:09:08;;;;;;;6.67;6.20;;;29.10;40.40;;;;;;5080173;28;20425;-43
2022/05/10 10:11:38;;;;;;;7.27;6.67;;;29.50;39.30;;;;;;5061465;28;20277;-43
2022/05/10 10:14:09;;;;;;;6.70;6.20;;;29.60;39.50;;;;;;5078948;28;20486;-42
2022/05/10 10:16:48;;;;;;;6.13;5.73;;;29.70;39.20;;;;;;5060107;28;20416;-42
2022/05/10 10:19:40;;;;;;;6.80;6.20;;;29.50;39.60;;;;;;5060826;28;20434;-38
2022/05/10 10:22:30;;;;;;;5.77;5.37;;;29.40;38.80;;;;;;5078369;28;20507;-38
2022/05/10 10:25:02;;;;;;;5.67;5.33;;;29.70;38.60;;;;;;5078839;28;20942;-42
2022/05/10 10:27:45;;;;;;;6.63;6.13;;;30.10;37.10;;;;;;5078715;28;20405;-41
2022/05/10 10:30:34;;;;;;;6.67;6.17;;;30.60;37.40;;;;;;5061117;28;20438;-40
2022/05/10 10:33:27;;;;;;;6.43;6.03;;;30.90;36.40;;;;;;5061000;28;20904;-41
2022/05/10 10:36:03;;;;;;;6.33;5.93;;;31.00;36.20;;;;;;5079286;28;20442;-38
2022/05/10 10:38:40;;;;;;;6.50;6.00;;;31.20;36.60;;;;;;5077854;28;20748;-42
2022/05/10 10:41:10;;;;;;;5.70;5.30;;;31.70;36.60;;;;;;5078824;28;21035;-39
2022/05/10 10:43:41;;;;;;;5.80;5.30;;;32.30;35.40;;;;;;5059685;28;20412;-43
2022/05/10 10:46:29;;;;;;;6.43;5.97;;;32.80;35.70;;;;;;5062047;28;20583;-39
2022/05/10 10:49:12;;;;;;;5.37;4.97;;;33.00;34.00;;;;;;5060679;28;20669;-40
2022/05/10 10:51:38;;;;;;;5.80;5.30;;;32.70;32.90;;;;;;5078092;28;20407;-40
2022/05/10 10:54:04;;;;;;;5.67;5.27;;;32.20;33.60;;;;;;5061275;28;20824;-41
2022/05/10 10:56:53;;;;;;;6.20;5.80;;;31.80;34.10;;;;;;5062321;28;20431;-41
2022/05/10 11:00:01;;;;;;;6.00;5.60;;;31.30;34.00;;;;;;5079154;28;20435;-39
2022/05/10 11:02:55;;;;;;;8.30;6.07;;;31.10;33.70;;;;;;5051911;28;20409;-41
2022/05/10 11:05:34;;;;;;;5.93;5.53;;;30.60;34.90;;;;;;5076941;28;20823;-43
2022/05/10 11:08:22;;;;;;;5.40;5.10;;;30.10;34.70;;;;;;5060790;28;20460;-40
2022/05/10 11:11:08;;;;;;;6.13;5.67;;;30.10;34.00;;;;;;5076732;28;20756;-38
2022/05/10 11:13:42;;;;;;;6.00;5.60;;;30.60;34.80;;;;;;5076453;28;20703;-43
2022/05/10 11:16:14;;;;;;;5.13;4.83;;;30.90;33.20;;;;;;5076179;28;20814;-41
2022/05/10 11:19:07;;;;;;;5.07;4.77;;;30.90;33.20;;;;;;5077962;28;20435;-39
2022/05/10 11:21:49;;;;;;;5.93;5.53;;;30.90;33.50;;;;;;5085802;28;20432;-44
2022/05/10 11:25:00;;;;;;;5.50;5.00;;;30.90;33.70;;;;;;5096889;28;20913;-41
2022/05/10 11:27:48;;;;;;;5.93;5.53;;;31.00;34.40;;;;;;5074317;28;20707;-38
2022/05/10 11:30:17;;;;;;;5.50;5.10;;;31.40;33.70;;;;;;5076860;28;20816;-40
2022/05/10 11:32:52;;;;;;;5.10;4.70;;;31.60;33.10;;;;;;5096561;28;20410;-38
2022/05/10 11:35:23;;;;;;;5.40;5.00;;;31.90;33.20;;;;;;5095769;28;20447;-39
2022/05/10 11:38:00;;;;;;;6.60;6.17;;;32.30;32.10;;;;;;5091873;28;20514;-40
2022/05/10 11:40:52;;;;;;;5.30;5.00;;;32.80;32.40;;;;;;5082142;28;20784;-40
2022/05/10 11:43:43;;;;;;;5.87;5.43;;;33.00;31.90;;;;;;5061629;28;20430;-39
2022/05/10 11:46:33;;;;;;;6.33;5.83;;;33.00;31.60;;;;;;5061514;28;20404;-41
2022/05/10 11:49:22;;;;;;;6.00;5.60;;;33.30;31.60;;;;;;5076648;28;20430;-40
2022/05/10 11:52:17;;;;;;;6.33;5.83;;;33.40;32.20;;;;;;5088764;28;21170;-41
2022/05/10 11:55:01;;;;;;;6.60;6.20;;;32.50;32.10;;;;;;5079209;28;21013;-39
2022/05/10 11:57:30;;;;;;;6.63;6.07;;;31.50;32.80;;;;;;5098160;28;20812;-39
2022/05/10 12:00:30;;;;;;;6.40;5.90;;;30.70;33.60;;;;;;5078497;28;20523;-40
2022/05/10 12:02:58;;;;;;;6.73;6.17;;;29.80;34.70;;;;;;5097276;28;20413;-40
2022/05/10 12:05:31;;;;;;;6.37;5.90;;;29.20;35.20;;;;;;5097839;28;20422;-40
2022/05/10 12:08:04;;;;;;;7.67;6.90;;;28.80;35.80;;;;;;5099287;28;20410;-40
2022/05/10 12:10:41;;;;;;;6.53;6.10;;;28.60;36.10;;;;;;5097743;28;20784;-43
2022/05/10 12:13:07;;;;;;;6.63;6.23;;;28.60;36.20;;;;;;5079113;28;20824;-39
2022/05/10 12:21:55;;;;;;;6.30;5.67;;;29.10;35.60;;;;;;5097036;28;20564;-40
2022/05/10 12:24:20;;;;;;;6.77;6.17;;;29.10;36.20;;;;;;5079708;28;20413;-41
2022/05/10 12:26:51;;;;;;;7.00;6.40;;;29.30;36.00;;;;;;5078812;28;20422;-41
2022/05/10 12:29:38;;;;;;;5.73;5.33;;;29.70;36.50;;;;;;5097518;28;20173;-39
2022/05/10 12:32:41;;;;;;;5.93;5.53;;;30.20;35.50;;;;;;5097953;28;20477;-42
2022/05/10 12:35:21;;;;;;;6.17;5.67;;;30.30;34.50;;;;;;5095617;28;20462;-39
2022/05/10 12:37:57;;;;;;;6.80;6.30;;;30.70;34.40;;;;;;5096616;28;20409;-41
2022/05/10 12:40:33;;;;;;;6.30;5.70;;;30.90;34.10;;;;;;5096744;28;20448;-38
2022/05/10 12:43:23;;;;;;;6.63;6.13;;;31.20;34.20;;;;;;5097074;28;21016;-38
2022/05/10 12:45:57;;;;;;;7.03;6.63;;;31.50;34.10;;;;;;5097369;28;20400;-41
2022/05/10 12:48:40;;;;;;;6.50;6.10;;;31.30;34.00;;;;;;5097059;28;20502;-43
2022/05/10 12:51:53;;;;;;;6.80;6.17;;;30.90;34.20;;;;;;5078940;28;20435;-43
2022/05/10 12:54:21;;;;;;;7.00;6.50;;;30.90;35.00;;;;;;5092406;28;20585;-40
2022/05/10 12:57:06;;;;;;;7.60;7.00;;;31.50;34.80;;;;;;5096079;28;20920;-39
2022/05/10 12:59:39;;;;;;;6.10;5.63;;;31.80;34.50;;;;;;5096254;28;20485;-43
2022/05/10 13:02:09;;;;;;;6.13;5.73;;;32.30;33.80;;;;;;5079314;28;20479;-40
2022/05/10 13:04:41;;;;;;;6.60;6.13;;;32.80;34.10;;;;;;5097904;28;20427;-40
2022/05/10 13:07:40;;;;;;;5.77;5.37;;;33.20;33.60;;;;;;5097533;28;20500;-39
2022/05/10 13:10:14;;;;;;;6.10;5.70;;;33.30;33.10;;;;;;5098298;28;20433;-43
2022/05/10 13:12:44;;;;;;;6.77;6.27;;;33.30;32.40;;;;;;5079819;28;20475;-41
2022/05/10 13:15:14;;;;;;;7.00;6.50;;;32.90;32.30;;;;;;5097140;28;20446;-43
2022/05/10 13:17:47;;;;;;;6.40;6.00;;;32.50;32.50;;;;;;5079402;28;20484;-44